Time;durP1;ratioP1;P1;durP2;ratioP2;P2;SDS_P1;SDS_P2;PMS_P1;PMS_P2;Temp;Humidity;BMP_temperature;BMP_pressure;BME280_temperature;BME280_humidity;BME280_pressure;Samples;Min_cycle;Max_cycle;Signal;HPM_P1;HPM_P2
2022/05/01 00:12:56;;;;;;;13.75;10.30;;;11.30;60.40;;;;;;2618676;47;20396;-82
2022/05/01 00:18:44;;;;;;;10.27;9.27;;;11.20;62.10;;;;;;2619246;46;20475;-82
2022/05/01 00:24:32;;;;;;;12.87;11.47;;;11.10;67.00;;;;;;2618998;47;20536;-81
2022/05/01 00:30:19;;;;;;;11.30;10.00;;;11.10;66.10;;;;;;2619336;47;20143;-80
2022/05/01 00:36:26;;;;;;;16.50;9.30;;;11.10;69.10;;;;;;2619883;54;20169;-80
2022/05/01 00:42:17;;;;;;;11.27;10.20;;;10.90;70.80;;;;;;2625852;54;20388;-78
2022/05/01 00:48:06;;;;;;;15.13;10.33;;;10.70;76.60;;;;;;2624640;47;20388;-78
2022/05/01 00:53:55;;;;;;;14.53;9.87;;;10.60;85.30;;;;;;2624740;47;20380;-80
2022/05/01 01:03:24;;;;;;;11.90;9.33;;;10.70;89.20;;;;;;2624747;54;20965;-81
2022/05/01 01:09:33;;;;;;;11.30;9.57;;;10.70;87.60;;;;;;2624237;54;20150;-80
2022/05/01 01:15:41;;;;;;;15.43;9.73;;;10.80;85.90;;;;;;2623690;54;20419;-79
2022/05/01 01:21:51;;;;;;;10.70;9.63;;;10.80;85.90;;;;;;2623280;54;20412;-80
2022/05/01 01:28:02;;;;;;;14.07;10.43;;;10.70;87.80;;;;;;2621973;54;20428;-78
2022/05/01 01:34:12;;;;;;;16.40;10.70;;;10.80;90.10;;;;;;2622509;54;20407;-82
2022/05/01 01:51:01;;;;;;;14.67;10.00;;;10.70;91.70;;;;;;2622734;47;20380;-81
2022/05/01 01:56:49;;;;;;;16.23;10.93;;;10.80;93.30;;;;;;2623732;54;20391;-81
2022/05/01 02:02:39;;;;;;;13.93;10.27;;;10.70;93.30;;;;;;2619034;54;20490;-82
2022/05/01 02:08:26;;;;;;;11.80;10.13;;;10.50;94.20;;;;;;2618325;54;20934;-82
2022/05/01 02:14:14;;;;;;;11.83;9.90;;;10.40;94.20;;;;;;2618436;54;20395;-83
2022/05/01 02:23:42;;;;;;;13.83;10.00;;;10.20;99.90;;;;;;2618486;54;20379;-81
2022/05/01 02:29:49;;;;;;;14.63;10.23;;;10.00;99.90;;;;;;2619995;54;20720;-81
2022/05/01 02:35:56;;;;;;;11.60;10.17;;;9.80;99.90;;;;;;2619554;54;20399;-80
2022/05/01 02:42:03;;;;;;;12.03;10.60;;;9.80;99.90;;;;;;2619421;39;20783;-80
2022/05/01 02:48:10;;;;;;;13.30;10.73;;;9.70;99.90;;;;;;2619215;54;20886;-80
2022/05/01 02:54:17;;;;;;;12.13;10.47;;;9.40;99.90;;;;;;2619143;54;20224;-78
2022/05/01 03:04:07;;;;;;;18.10;11.10;;;9.10;99.90;;;;;;2618977;54;20400;-79
2022/05/01 03:10:14;;;;;;;12.53;10.90;;;8.80;99.90;;;;;;2619023;54;20435;-79
2022/05/01 03:16:21;;;;;;;13.63;11.70;;;8.80;99.90;;;;;;2618927;54;20147;-78
2022/05/01 03:22:28;;;;;;;14.47;10.17;;;8.60;99.90;;;;;;2619052;54;20223;-79
2022/05/01 03:28:35;;;;;;;16.53;13.00;;;8.40;99.90;;;;;;2618939;54;20436;-80
2022/05/01 03:34:42;;;;;;;15.10;10.30;;;8.40;99.90;;;;;;2620104;39;20554;-81
2022/05/01 03:40:49;;;;;;;16.60;10.43;;;8.30;99.90;;;;;;2618989;54;20149;-79
2022/05/01 03:46:56;;;;;;;13.57;11.63;;;8.00;99.90;;;;;;2618914;54;20406;-79
2022/05/01 03:53:04;;;;;;;14.70;11.13;;;7.80;99.90;;;;;;2619059;54;20193;-81
2022/05/01 04:05:55;;;;;;;20.33;11.80;;;7.70;99.90;;;;;;2619075;54;20395;-79
2022/05/01 04:12:02;;;;;;;15.27;9.87;;;7.50;99.90;;;;;;2619222;54;20399;-79
2022/05/01 04:18:10;;;;;;;15.80;11.67;;;7.60;99.90;;;;;;2619027;54;21006;-79
2022/05/01 04:24:17;;;;;;;17.60;10.73;;;7.60;99.90;;;;;;2618706;54;20401;-79
2022/05/01 04:30:26;;;;;;;12.83;10.37;;;7.60;99.90;;;;;;2618906;54;20162;-79
2022/05/01 04:36:33;;;;;;;12.33;11.03;;;7.60;99.90;;;;;;2618996;54;20401;-79
2022/05/01 04:42:41;;;;;;;15.03;11.50;;;7.70;99.90;;;;;;2618755;54;20933;-79
2022/05/01 04:48:48;;;;;;;12.30;10.47;;;7.70;99.90;;;;;;2618812;54;20973;-82
2022/05/01 04:54:55;;;;;;;13.97;10.90;;;7.80;99.90;;;;;;2619327;54;20188;-82
2022/05/01 05:01:02;;;;;;;16.93;12.13;;;8.00;99.90;;;;;;2619376;39;20791;-81
2022/05/01 05:14:21;;;;;;;14.80;12.13;;;8.50;99.90;;;;;;2618100;54;21012;-81
2022/05/01 05:20:27;;;;;;;16.40;11.33;;;8.80;99.90;;;;;;2617572;54;20272;-82
2022/05/01 05:26:34;;;;;;;14.57;12.23;;;9.20;99.90;;;;;;2617056;54;20197;-80
2022/05/01 05:32:40;;;;;;;13.87;11.83;;;9.80;99.90;;;;;;2617990;54;20146;-81
2022/05/01 05:38:46;;;;;;;13.50;10.70;;;10.80;99.90;;;;;;2619907;39;20584;-83
2022/05/01 05:44:53;;;;;;;12.37;9.50;;;11.60;97.20;;;;;;2620901;54;20145;-80
2022/05/01 05:51:00;;;;;;;14.77;9.80;;;12.00;90.30;;;;;;2621365;54;20394;-83
2022/05/01 05:57:07;;;;;;;12.83;11.43;;;12.50;81.40;;;;;;2621599;54;20399;-82
2022/05/01 06:06:56;;;;;;;9.90;8.90;;;12.70;68.00;;;;;;2619781;54;20534;-81
2022/05/01 06:13:02;;;;;;;15.87;10.30;;;12.70;68.20;;;;;;2619503;54;20936;-80
2022/05/01 06:19:09;;;;;;;10.93;10.00;;;12.20;71.00;;;;;;2619599;54;20145;-79
2022/05/01 06:25:17;;;;;;;18.90;9.97;;;11.50;76.30;;;;;;2619532;54;20647;-79
2022/05/01 06:31:23;;;;;;;11.37;10.27;;;10.80;85.90;;;;;;2619583;39;20768;-80
2022/05/01 06:37:31;;;;;;;12.00;9.73;;;10.70;90.00;;;;;;2619281;54;20647;-81
2022/05/01 06:43:38;;;;;;;11.90;9.30;;;10.80;91.40;;;;;;2619442;39;20473;-81
2022/05/01 06:49:45;;;;;;;10.40;9.30;;;11.20;86.40;;;;;;2619399;54;20936;-80
2022/05/01 06:55:54;;;;;;;11.37;10.17;;;11.60;79.70;;;;;;2619284;54;20189;-80
2022/05/01 07:02:01;;;;;;;10.43;9.20;;;11.80;75.50;;;;;;2619199;54;20411;-79
2022/05/01 07:08:08;;;;;;;10.20;9.20;;;11.80;72.90;;;;;;2619068;54;20146;-80
2022/05/01 07:14:15;;;;;;;10.70;9.30;;;12.00;68.10;;;;;;2618962;54;20619;-80
2022/05/01 07:20:22;;;;;;;11.80;10.33;;;12.10;67.20;;;;;;2618932;54;20146;-80
2022/05/01 07:26:33;;;;;;;11.63;9.87;;;12.30;66.80;;;;;;2618956;54;20162;-79
2022/05/01 07:32:40;;;;;;;11.80;9.90;;;12.60;59.70;;;;;;2618951;54;20399;-79
2022/05/01 07:38:49;;;;;;;13.13;9.40;;;12.70;55.40;;;;;;2619007;54;20186;-81
2022/05/01 07:44:55;;;;;;;10.73;9.73;;;13.00;55.50;;;;;;2618775;54;20387;-81
2022/05/01 07:51:03;;;;;;;9.90;8.67;;;13.50;50.30;;;;;;2619034;46;20414;-80
2022/05/01 07:57:10;;;;;;;9.63;8.83;;;14.00;46.10;;;;;;2618907;54;20387;-79
2022/05/01 08:09:43;;;;;;;15.27;11.30;;;14.80;37.00;;;;;;2619200;39;20791;-81
2022/05/01 08:37:31;;;;;;;10.33;9.30;;;17.60;7.10;;;;;;2617944;39;20476;-81
2022/05/01 08:43:38;;;;;;;11.20;10.20;;;18.10;2.40;;;;;;2617331;54;20440;-79
2022/05/01 08:49:46;;;;;;;11.60;10.50;;;18.00;2.40;;;;;;2617593;54;20488;-81
2022/05/01 08:55:53;;;;;;;13.10;11.60;;;17.70;1.80;;;;;;2617564;54;20404;-83
2022/05/01 09:02:00;;;;;;;11.57;10.57;;;18.00;1.30;;;;;;2617779;54;20429;-80
2022/05/01 09:08:07;;;;;;;11.83;10.73;;;17.50;3.20;;;;;;2618911;54;20384;-82
2022/05/01 09:14:14;;;;;;;15.37;11.40;;;17.20;2.10;;;;;;2619710;54;20444;-81
2022/05/01 09:20:21;;;;;;;9.27;8.37;;;16.70;3.50;;;;;;2619935;54;20970;-80
2022/05/01 10:13:16;;;;;;;11.10;7.93;;;17.10;1.00;;;;;;2618009;54;20493;-82
2022/05/01 10:22:44;;;;;;;9.90;9.10;;;16.60;1.00;;;;;;2618691;46;20389;-84
2022/05/01 10:32:37;;;;;;;9.90;9.00;;;16.60;1.00;;;;;;2618517;54;20425;-83
2022/05/01 10:39:01;;;;;;;11.43;8.60;;;17.10;1.00;;;;;;2618306;54;21036;-81
2022/05/01 10:45:21;;;;;;;9.43;8.47;;;17.00;1.00;;;;;;2619438;54;20399;-82
2022/05/01 10:51:29;;;;;;;9.73;8.83;;;17.60;1.00;;;;;;2619653;54;20501;-81
2022/05/01 10:57:38;;;;;;;9.83;8.90;;;18.00;1.00;;;;;;2619659;54;20996;-80
2022/05/01 11:03:51;;;;;;;10.30;9.40;;;18.80;1.00;;;;;;2619621;54;20742;-81
2022/05/01 11:10:01;;;;;;;9.43;8.53;;;18.70;1.00;;;;;;2619365;54;20472;-81
2022/05/01 11:30:27;;;;;;;10.67;9.53;;;19.60;1.00;;;;;;2618295;54;20394;-82
2022/05/01 11:36:55;;;;;;;10.67;9.77;;;20.00;1.00;;;;;;2617126;54;21008;-81
2022/05/01 11:43:18;;;;;;;10.23;9.33;;;18.80;1.00;;;;;;2617946;54;20428;-80
2022/05/01 11:49:23;;;;;;;10.80;9.70;;;18.60;1.00;;;;;;2617238;54;20467;-82
2022/05/01 12:08:21;;;;;;;11.87;10.97;;;18.10;1.00;;;;;;2620087;54;20400;-81
2022/05/01 12:14:28;;;;;;;11.87;10.80;;;18.30;1.00;;;;;;2619797;54;20985;-79
2022/05/01 12:20:36;;;;;;;12.40;11.30;;;19.10;1.00;;;;;;2619278;54;20406;-82
2022/05/01 12:26:54;;;;;;;15.23;12.10;;;19.60;1.00;;;;;;2618971;54;20435;-81
2022/05/01 12:40:07;;;;;;;12.77;11.67;;;18.50;1.00;;;;;;2619283;54;20385;-82
2022/05/01 12:46:32;;;;;;;12.60;11.40;;;17.90;1.00;;;;;;2619071;54;20407;-81
2022/05/01 12:52:40;;;;;;;14.67;12.60;;;17.90;1.00;;;;;;2618814;54;20543;-83
2022/05/01 12:58:48;;;;;;;11.87;10.93;;;17.80;1.00;;;;;;2619605;54;20424;-82
2022/05/01 13:05:03;;;;;;;12.60;11.30;;;17.90;1.00;;;;;;2619268;54;20404;-83
2022/05/01 13:11:17;;;;;;;11.97;10.87;;;18.00;1.00;;;;;;2619345;54;20437;-83
2022/05/01 13:17:27;;;;;;;13.23;11.93;;;18.30;1.00;;;;;;2619001;54;20445;-83
2022/05/01 13:23:34;;;;;;;13.37;12.17;;;18.20;1.00;;;;;;2618977;54;21030;-82
2022/05/01 13:29:42;;;;;;;13.30;11.90;;;18.30;1.00;;;;;;2619178;54;20396;-83
2022/05/01 13:35:49;;;;;;;11.70;10.70;;;17.90;1.00;;;;;;2618941;54;21011;-83
2022/05/01 13:48:22;;;;;;;11.87;10.70;;;18.60;1.00;;;;;;2619209;39;20496;-83
2022/05/01 13:54:29;;;;;;;10.80;9.80;;;18.10;1.00;;;;;;2619119;54;20412;-82
2022/05/01 14:00:38;;;;;;;10.83;9.90;;;17.80;1.00;;;;;;2619233;54;20440;-83
2022/05/01 14:06:45;;;;;;;12.50;9.43;;;17.40;1.00;;;;;;2616900;54;20428;-83
2022/05/01 14:12:51;;;;;;;13.60;10.20;;;17.10;1.00;;;;;;2616196;54;20463;-82
2022/05/01 14:26:27;;;;;;;11.20;10.27;;;17.30;1.00;;;;;;2615510;54;20388;-84
2022/05/01 14:42:47;;;;;;;11.07;10.07;;;17.50;1.00;;;;;;2616895;47;20453;-84
2022/05/01 15:09:31;;;;;;;16.07;11.33;;;17.20;1.00;;;;;;2616613;54;20416;-82
2022/05/01 15:15:53;;;;;;;17.73;16.13;;;17.10;1.00;;;;;;2616784;54;20435;-82
2022/05/01 15:40:16;;;;;;;11.80;10.60;;;16.80;1.00;;;;;;2616443;54;20459;-81
2022/05/01 15:56:11;;;;;;;9.77;8.77;;;16.60;1.00;;;;;;2615918;54;20414;-82
2022/05/01 16:02:00;;;;;;;10.30;9.20;;;16.10;1.00;;;;;;2616385;47;20425;-82
2022/05/01 16:11:35;;;;;;;10.33;9.43;;;15.80;1.00;;;;;;2616357;54;20423;-82
2022/05/01 16:21:25;;;;;;;10.33;9.20;;;15.80;1.00;;;;;;2616970;54;20400;-83
2022/05/01 16:27:38;;;;;;;11.17;9.00;;;15.70;1.00;;;;;;2617405;39;20923;-82
2022/05/01 16:44:25;;;;;;;11.00;10.10;;;15.60;1.00;;;;;;2615720;54;20965;-82
2022/05/01 17:09:00;;;;;;;10.20;9.20;;;15.00;3.50;;;;;;2616262;39;20839;-82
2022/05/01 17:22:46;;;;;;;12.70;11.47;;;15.10;3.70;;;;;;2616310;46;20419;-82
2022/05/01 17:28:55;;;;;;;14.83;13.37;;;15.10;3.00;;;;;;2615898;54;20497;-82
2022/05/01 17:35:01;;;;;;;10.13;9.23;;;15.00;5.10;;;;;;2616809;54;20438;-83
2022/05/01 17:41:10;;;;;;;9.93;9.00;;;14.70;6.10;;;;;;2617045;54;20418;-82
2022/05/01 17:47:18;;;;;;;14.03;9.00;;;14.90;6.20;;;;;;2616566;54;20399;-83
2022/05/01 17:56:46;;;;;;;11.00;9.87;;;14.70;5.40;;;;;;2618489;46;20981;-83
2022/05/01 18:02:51;;;;;;;11.43;10.33;;;14.50;6.00;;;;;;2620215;54;20415;-84
2022/05/01 18:52:36;;;;;;;12.20;10.40;;;13.90;8.20;;;;;;2616830;54;20469;-83
2022/05/01 18:58:46;;;;;;;9.53;8.63;;;13.80;8.50;;;;;;2618149;54;20403;-84
2022/05/01 19:12:11;;;;;;;10.77;9.67;;;13.50;11.70;;;;;;2617622;54;20398;-83
2022/05/01 19:33:11;;;;;;;10.83;9.83;;;13.20;15.20;;;;;;2617344;47;20989;-80
2022/05/01 19:39:04;;;;;;;10.07;9.07;;;13.10;15.10;;;;;;2616175;47;20416;-82
2022/05/01 19:44:55;;;;;;;10.23;9.23;;;13.10;15.30;;;;;;2616268;54;20551;-82
2022/05/01 19:57:39;;;;;;;8.83;8.00;;;13.00;18.60;;;;;;2618437;47;20968;-82
2022/05/01 20:03:30;;;;;;;11.80;8.63;;;13.20;17.80;;;;;;2618591;47;20411;-82
2022/05/01 20:09:23;;;;;;;12.00;8.90;;;13.10;17.60;;;;;;2618616;47;20458;-83
2022/05/01 20:15:21;;;;;;;9.03;8.23;;;13.20;17.30;;;;;;2619815;47;20447;-83
2022/05/01 20:32:54;;;;;;;9.83;8.87;;;13.10;17.70;;;;;;2618668;54;20422;-81
2022/05/01 21:11:00;;;;;;;21.07;14.37;;;12.10;36.00;;;;;;2617896;47;20416;-83
2022/05/01 21:16:47;;;;;;;13.73;12.10;;;12.00;41.60;;;;;;2617961;47;20447;-82
2022/05/01 21:22:35;;;;;;;21.83;13.43;;;11.90;45.60;;;;;;2617426;54;20182;-84
2022/05/01 21:34:49;;;;;;;16.47;12.00;;;11.50;58.90;;;;;;2616711;47;21465;-83
2022/05/01 21:51:28;;;;;;;21.63;11.90;;;11.30;68.90;;;;;;2616270;54;20383;-81
2022/05/01 21:57:34;;;;;;;13.93;10.30;;;11.00;78.50;;;;;;2623795;54;20164;-82
2022/05/01 22:07:22;;;;;;;13.70;11.30;;;11.00;86.20;;;;;;2618378;47;20442;-82
2022/05/01 22:13:10;;;;;;;12.20;11.00;;;10.80;89.90;;;;;;2616823;54;20143;-83
2022/05/01 22:22:57;;;;;;;14.17;12.03;;;10.40;99.90;;;;;;2616553;54;20410;-83
2022/05/01 22:29:05;;;;;;;13.07;11.70;;;10.40;99.90;;;;;;2617657;54;20431;-83
2022/05/01 22:41:38;;;;;;;17.27;13.03;;;10.10;99.90;;;;;;2619055;54;20447;-83
2022/05/01 22:47:47;;;;;;;15.03;12.23;;;10.00;99.90;;;;;;2619814;54;20152;-82
2022/05/01 22:53:54;;;;;;;18.37;13.43;;;10.00;99.90;;;;;;2618877;54;20414;-82
2022/05/01 23:00:01;;;;;;;13.90;12.43;;;9.90;99.90;;;;;;2619028;54;20195;-81
2022/05/01 23:06:07;;;;;;;14.30;12.50;;;9.80;99.90;;;;;;2619726;54;20537;-81
2022/05/01 23:12:14;;;;;;;15.57;12.73;;;9.90;99.90;;;;;;2618547;54;20440;-82
2022/05/01 23:18:21;;;;;;;14.63;12.53;;;9.80;99.40;;;;;;2619987;54;20888;-83
2022/05/01 23:24:28;;;;;;;16.07;12.50;;;9.60;99.90;;;;;;2619969;39;20526;-81
2022/05/01 23:30:35;;;;;;;19.90;14.10;;;9.40;99.90;;;;;;2619519;54;20164;-81
2022/05/01 23:36:42;;;;;;;15.40;13.87;;;9.40;99.90;;;;;;2619210;54;20146;-81
2022/05/01 23:42:50;;;;;;;15.13;13.07;;;9.20;99.90;;;;;;2619283;54;20406;-82
2022/05/01 23:48:58;;;;;;;16.20;14.30;;;9.10;99.90;;;;;;2619224;54;20406;-82
2022/05/01 23:55:06;;;;;;;17.60;13.93;;;8.90;99.90;;;;;;2619197;54;20417;-82
